Time;durP1;ratioP1;P1;durP2;ratioP2;P2;SDS_P1;SDS_P2;PMS_P1;PMS_P2;Temp;Humidity;BMP_temperature;BMP_pressure;BME280_temperature;BME280_humidity;BME280_pressure;Samples;Min_cycle;Max_cycle;Signal;HPM_P1;HPM_P2
2024/04/17 06:17:03;;;;;;;14.05;9.20;;;;;;;3.84;100.00;95826.94;2271176;25;20563;-65
2024/04/17 06:22:30;;;;;;;11.32;6.60;;;;;;;3.73;100.00;95827.31;2260901;25;20715;-64
2024/04/17 10:18:20;;;;;;;22.95;8.68;;;;;;;5.09;100.00;95935.81;2225208;26;20613;-64
2024/04/17 10:19:23;;;;;;;18.75;9.75;;;;;;;5.46;100.00;95929.38;2220290;26;20221;-64
2024/04/17 10:20:29;;;;;;;24.52;8.50;;;;;;;5.81;100.00;95935.00;2220082;26;20214;-66
2024/04/17 10:21:35;;;;;;;16.95;8.85;;;;;;;6.12;99.63;95933.88;2220352;26;20315;-66
2024/04/17 10:22:37;;;;;;;24.05;8.45;;;;;;;6.30;98.52;95934.09;2217544;26;20212;-66
2024/04/17 10:23:39;;;;;;;18.95;8.90;;;;;;;6.44;97.93;95934.38;2223218;26;20286;-66
2024/04/17 10:24:42;;;;;;;14.65;8.10;;;;;;;6.56;96.52;95927.84;2216328;26;20211;-66
2024/04/17 10:25:56;;;;;;;16.48;8.00;;;;;;;6.84;94.67;95929.31;2217166;26;20224;-66
2024/04/17 10:26:57;;;;;;;13.10;7.50;;;;;;;6.98;92.60;95931.34;2215914;26;20256;-67
2024/04/17 10:28:12;;;;;;;20.17;6.78;;;;;;;7.05;92.03;95924.13;2216208;26;20260;-67
2024/04/17 10:29:17;;;;;;;16.98;8.80;;;;;;;7.23;92.32;95938.94;2224592;26;20269;-67
2024/04/17 10:30:19;;;;;;;14.18;7.07;;;;;;;7.33;91.75;95932.44;2221990;26;20247;-67
2024/04/17 10:31:20;;;;;;;21.70;7.45;;;;;;;7.42;91.43;95933.78;2222963;26;20554;-67
2024/04/17 10:32:22;;;;;;;21.83;6.40;;;;;;;7.54;90.24;95929.81;2222017;26;20223;-67
2024/04/17 10:33:27;;;;;;;21.92;7.40;;;;;;;7.96;89.17;95923.63;2212039;26;20355;-67
2024/04/17 10:34:40;;;;;;;18.25;6.72;;;;;;;8.22;88.23;95931.13;2208004;26;20560;-67
2024/04/17 10:35:42;;;;;;;12.13;5.93;;;;;;;7.97;88.41;95927.06;2214519;26;20531;-67
2024/04/17 10:36:54;;;;;;;9.52;6.35;;;;;;;7.82;87.06;95934.66;2211578;26;20222;-64
2024/04/17 10:38:04;;;;;;;13.73;7.00;;;;;;;7.75;89.35;95929.78;2218233;26;20250;-67
2024/04/17 10:39:29;;;;;;;11.38;6.70;;;;;;;7.20;88.35;95926.09;2223628;26;20227;-67
2024/04/17 10:40:31;;;;;;;15.52;6.30;;;;;;;7.59;89.45;95934.81;2216501;26;20216;-67
2024/04/17 10:41:32;;;;;;;12.75;6.00;;;;;;;7.59;89.33;95934.81;2220405;26;20333;-67
2024/04/17 10:42:35;;;;;;;10.98;6.00;;;;;;;7.57;88.04;95929.69;2214997;26;20568;-67
2024/04/17 10:43:37;;;;;;;14.00;5.90;;;;;;;7.60;89.10;95929.53;2216446;26;20215;-67
2024/04/17 10:44:46;;;;;;;17.38;6.32;;;;;;;7.84;89.58;95926.78;2222712;26;20275;-67
2024/04/17 10:46:07;;;;;;;10.68;6.05;;;;;;;7.64;86.87;95931.13;2217480;26;20544;-67
2024/04/17 10:47:27;;;;;;;13.07;6.18;;;;;;;7.58;87.46;95927.94;2212785;26;20267;-66
2024/04/17 10:48:29;;;;;;;16.13;6.65;;;;;;;7.79;87.17;95924.38;2216489;26;20258;-66
2024/04/17 10:49:39;;;;;;;17.73;7.45;;;;;;;8.68;86.92;95928.97;2215306;26;20766;-66
2024/04/17 10:50:41;;;;;;;14.35;6.45;;;;;;;8.61;87.50;95920.63;2214737;26;20221;-66
2024/04/17 10:51:44;;;;;;;13.35;6.20;;;;;;;8.17;85.61;95928.75;2216723;26;20763;-66
2024/04/17 10:52:47;;;;;;;23.45;6.68;;;;;;;8.68;85.21;95922.94;2215304;26;20223;-66
2024/04/17 10:53:49;;;;;;;13.25;8.07;;;;;;;8.11;84.51;95923.81;2221583;26;20262;-65
2024/04/17 10:54:54;;;;;;;20.73;13.35;;;;;;;8.28;86.33;95916.06;2214328;26;20294;-66
2024/04/17 10:55:57;;;;;;;15.45;7.45;;;;;;;8.28;87.63;95923.06;2214998;26;20219;-66
2024/04/17 10:57:00;;;;;;;12.10;6.40;;;;;;;8.49;86.15;95916.84;2214882;26;20228;-66
2024/04/17 10:58:02;;;;;;;16.13;5.68;;;;;;;8.46;84.69;95916.16;2213936;26;20246;-66
2024/04/17 10:59:04;;;;;;;12.02;6.20;;;;;;;8.34;84.93;95923.59;2222409;26;20220;-66
2024/04/17 11:00:07;;;;;;;10.55;5.90;;;;;;;8.70;83.60;95916.72;2217544;26;20321;-66
2024/04/17 11:01:11;;;;;;;23.83;6.60;;;;;;;8.71;83.95;95917.56;2215103;26;20220;-66
2024/04/17 11:02:14;;;;;;;18.38;6.38;;;;;;;8.80;83.68;95920.56;2216253;26;20722;-65
2024/04/17 11:03:16;;;;;;;13.18;5.95;;;;;;;8.75;82.46;95919.13;2222233;26;20293;-65
2024/04/17 11:04:17;;;;;;;14.27;5.50;;;;;;;8.45;81.69;95910.06;2208757;26;20254;-65
2024/04/17 11:05:19;;;;;;;18.38;6.65;;;;;;;8.83;81.21;95916.97;2213580;26;20723;-65
2024/04/17 11:06:21;;;;;;;17.27;8.45;;;;;;;-145.49;100.00;55703.94;2228184;26;20522;-66
2024/04/17 11:07:23;;;;;;;20.23;5.63;;;;;;;8.83;81.21;95916.97;2223979;26;20273;-66
2024/04/17 11:08:24;;;;;;;15.60;6.40;;;;;;;9.56;83.75;95921.97;2224221;26;20297;-65
2024/04/17 11:09:26;;;;;;;24.92;5.80;;;;;;;9.15;78.93;95923.19;2217626;26;20225;-65
2024/04/17 11:10:27;;;;;;;23.98;6.90;;;;;;;9.53;78.21;95916.91;2221372;26;20218;-66
2024/04/17 11:11:29;;;;;;;14.38;5.35;;;;;;;9.06;77.65;95917.59;2222224;26;20220;-65
2024/04/17 11:12:31;;;;;;;14.35;4.90;;;;;;;8.87;80.64;95921.09;2215706;26;20713;-66
2024/04/17 11:13:39;;;;;;;12.13;5.40;;;;;;;8.78;80.79;95924.16;2214780;26;20300;-66
2024/04/17 11:14:42;;;;;;;12.70;4.10;;;;;;;8.57;80.13;95918.22;2221519;26;20262;-65
2024/04/17 11:15:43;;;;;;;11.18;4.10;;;;;;;8.81;80.39;95893.63;2218751;26;20327;-66
2024/04/17 11:16:45;;;;;;;14.25;4.90;;;;;;;8.88;81.02;95919.34;2220494;26;20215;-66
2024/04/17 11:17:49;;;;;;;12.77;3.38;;;;;;;8.29;77.25;95912.56;2217055;26;20279;-66
2024/04/17 11:18:51;;;;;;;8.27;4.15;;;;;;;8.80;80.21;95911.91;2224109;26;20254;-65
2024/04/17 11:19:53;;;;;;;8.05;3.65;;;;;;;9.02;80.91;95911.69;2215972;26;20262;-65
2024/04/17 11:20:54;;;;;;;10.05;3.70;;;;;;;8.77;80.56;95912.06;2222928;26;20969;-67
2024/04/17 11:22:07;;;;;;;12.43;4.45;;;;;;;8.64;80.33;95904.00;2214315;26;20229;-67
2024/04/17 11:23:09;;;;;;;37.30;19.83;;;;;;;8.52;78.41;95912.41;2218302;26;20555;-65
2024/04/17 11:24:18;;;;;;;13.18;7.35;;;;;;;8.79;79.46;95913.66;2215042;26;20294;-65
2024/04/17 11:25:19;;;;;;;12.15;5.40;;;;;;;8.86;79.90;95911.59;2218797;26;20255;-65
2024/04/17 11:26:21;;;;;;;5.65;3.80;;;;;;;8.89;79.16;95915.81;2218180;26;20263;-66
2024/04/17 11:27:23;;;;;;;6.13;3.55;;;;;;;8.99;78.59;95914.44;2219297;26;20223;-65
2024/04/17 11:28:24;;;;;;;7.88;3.35;;;;;;;8.70;78.44;95911.53;2211793;26;20256;-66
2024/04/17 11:29:26;;;;;;;13.15;4.00;;;;;;;8.80;79.06;95912.75;2208057;26;20525;-65
2024/04/17 11:30:47;;;;;;;12.90;3.53;;;;;;;8.91;78.20;95920.03;2212854;26;20326;-65
2024/04/17 11:31:48;;;;;;;13.85;6.00;;;;;;;9.25;80.02;95922.72;2216233;26;20209;-65
2024/04/17 11:32:50;;;;;;;10.02;5.30;;;;;;;9.15;79.52;95914.50;2207989;26;20220;-65
2024/04/17 11:33:52;;;;;;;14.85;4.00;;;;;;;8.97;77.66;95914.50;2215937;26;20220;-65
2024/04/17 11:34:53;;;;;;;8.30;3.92;;;;;;;8.89;77.14;95910.59;2217468;26;20219;-65
2024/04/17 11:36:15;;;;;;;9.00;4.10;;;;;;;9.17;78.86;95914.41;2214832;26;20258;-65
2024/04/17 11:37:17;;;;;;;12.38;4.75;;;;;;;9.26;78.73;95919.19;2211208;26;20674;-65
2024/04/17 11:38:19;;;;;;;11.05;3.75;;;;;;;9.30;78.56;95920.72;2207602;26;20256;-65
2024/04/17 11:39:20;;;;;;;14.93;3.95;;;;;;;9.57;76.38;95915.00;2207720;26;20268;-65
2024/04/17 11:40:22;;;;;;;15.68;3.90;;;;;;;9.76;77.35;95914.84;2214862;26;20259;-65
2024/04/17 11:41:25;;;;;;;9.52;4.20;;;;;;;9.58;76.24;95914.91;2215360;26;20207;-65
2024/04/17 11:42:27;;;;;;;8.88;3.25;;;;;;;9.57;73.05;95912.38;2214390;26;20917;-65
2024/04/17 11:43:29;;;;;;;5.88;4.13;;;;;;;9.56;75.26;95914.16;2210580;26;20308;-65
2024/04/17 11:44:41;;;;;;;9.52;3.50;;;;;;;9.31;73.50;95911.97;2214522;26;21168;-65
2024/04/17 11:45:43;;;;;;;11.30;3.45;;;;;;;9.68;74.31;95914.44;2206896;26;20235;-65
2024/04/17 11:46:46;;;;;;;8.95;3.85;;;;;;;9.56;73.00;95908.94;2207423;26;20264;-65
2024/04/17 11:47:47;;;;;;;10.80;3.90;;;;;;;9.83;75.23;95916.22;2216034;26;20219;-65
2024/04/17 11:48:50;;;;;;;17.98;4.57;;;;;;;9.44;73.56;95915.63;2211314;26;20212;-65
2024/04/17 11:49:51;;;;;;;11.02;4.20;;;;;;;9.40;72.90;95916.69;2209520;26;20277;-65
2024/04/17 11:50:53;;;;;;;8.10;4.20;;;;;;;9.58;75.35;95916.69;2217082;26;20220;-65
2024/04/17 11:51:54;;;;;;;8.77;3.75;;;;;;;9.03;73.74;95913.38;2213986;26;20250;-65
2024/04/17 11:52:56;;;;;;;13.10;4.57;;;;;;;8.73;76.15;95915.72;2211624;26;20590;-65
2024/04/17 11:53:57;;;;;;;7.43;4.30;;;;;;;8.96;77.70;95918.06;2209452;26;20216;-65
2024/04/17 11:54:59;;;;;;;10.23;4.47;;;;;;;8.81;76.52;95919.66;2212917;26;20247;-65
2024/04/17 11:56:01;;;;;;;19.17;7.15;;;;;;;8.80;78.83;95919.72;2215089;26;20219;-65
2024/04/17 11:57:04;;;;;;;14.77;6.53;;;;;;;8.50;80.42;95917.69;2210315;26;20232;-65
2024/04/17 11:58:06;;;;;;;32.67;15.45;;;;;;;8.47;80.84;95920.44;2208702;26;20299;-65
2024/04/17 11:59:08;;;;;;;16.42;6.25;;;;;;;8.43;81.92;95918.84;2212949;26;20255;-65
2024/04/17 12:01:45;;;;;;;12.25;4.60;;;;;;;8.34;84.70;95925.34;2235066;25;20565;-63
2024/04/17 12:04:17;;;;;;;8.43;3.25;;;;;;;7.85;79.95;95921.50;2228963;26;20567;-62
2024/04/17 12:05:20;;;;;;;5.65;3.00;;;;;;;7.78;76.91;95921.84;2229618;26;20257;-63
2024/04/17 12:06:21;;;;;;;12.93;3.20;;;;;;;7.72;75.16;95920.38;2229803;26;20664;-64
2024/04/17 12:08:52;;;;;;;9.68;3.10;;;;;;;7.84;75.80;95919.81;2225224;26;20664;-63
2024/04/17 12:09:54;;;;;;;5.85;2.60;;;;;;;7.84;75.87;95925.00;2220376;26;20225;-63
2024/04/17 12:10:55;;;;;;;13.52;3.17;;;;;;;7.70;76.30;95921.34;2222225;26;20224;-63
2024/04/17 12:11:57;;;;;;;9.30;3.10;;;;;;;7.75;75.39;95922.00;2221529;26;20228;-63
2024/04/17 12:12:59;;;;;;;14.43;3.25;;;;;;;7.62;76.43;95906.94;2203239;26;20254;-63
2024/04/17 12:14:00;;;;;;;17.90;4.38;;;;;;;7.61;76.99;95933.00;2190577;27;20760;-63
2024/04/17 12:21:05;;;;;;;5.88;3.45;;;;;;;6.37;85.31;95935.50;2225494;26;20569;-63
2024/04/17 12:22:07;;;;;;;9.73;3.58;;;;;;;6.25;84.57;95936.84;2216528;26;20220;-65
2024/04/17 12:23:09;;;;;;;6.35;3.25;;;;;;;6.14;85.46;95945.03;2205137;26;20249;-65
2024/04/17 12:26:51;;;;;;;5.95;2.55;;;;;;;5.65;84.51;95944.22;2236412;26;20262;-63
2024/04/17 12:28:51;;;;;;;13.23;3.17;;;;;;;5.52;85.34;95946.41;2222761;26;21105;-62
2024/04/17 12:29:52;;;;;;;11.88;2.95;;;;;;;5.35;85.46;95947.84;2224897;26;20259;-62
2024/04/17 12:31:53;;;;;;;9.95;3.47;;;;;;;5.21;87.14;95940.56;2221555;26;20619;-62
2024/04/17 12:36:42;;;;;;;6.32;2.58;;;;;;;5.09;85.89;95934.97;2224078;25;21075;-62
2024/04/17 12:38:48;;;;;;;5.95;2.42;;;;;;;5.03;87.24;95943.81;2225571;26;20633;-63
2024/04/17 12:40:52;;;;;;;4.72;1.85;;;;;;;4.99;87.30;95937.88;2268427;25;20615;-62
2024/04/17 12:42:56;;;;;;;4.13;2.67;;;;;;;4.95;87.11;95941.47;2221454;25;20643;-64
2024/04/17 12:44:56;;;;;;;4.82;1.70;;;;;;;5.04;85.99;95942.88;2270076;25;20578;-62
2024/04/17 12:46:56;;;;;;;2.58;1.30;;;;;;;5.02;86.76;95931.75;2219615;26;20573;-63
2024/04/17 12:48:57;;;;;;;7.35;2.58;;;;;;;5.11;86.87;95936.63;2259879;25;21229;-62
2024/04/17 12:50:53;;;;;;;3.53;1.70;;;;;;;4.89;85.78;95939.09;2225489;26;20633;-62
2024/04/17 12:51:55;;;;;;;8.20;2.38;;;;;;;4.68;85.61;95933.72;2217305;26;20464;-63
2024/04/17 12:52:57;;;;;;;9.18;1.67;;;;;;;4.72;86.32;95942.22;2208250;26;20257;-62
2024/04/17 12:53:59;;;;;;;8.55;2.20;;;;;;;4.91;86.78;95942.47;2192614;27;20225;-62
2024/04/17 12:55:01;;;;;;;2.90;1.77;;;;;;;5.05;87.45;95942.00;2189762;27;20210;-62
2024/04/17 12:56:02;;;;;;;7.78;2.30;;;;;;;5.08;85.72;95936.72;2192999;26;20268;-63
2024/04/17 12:57:05;;;;;;;4.57;1.60;;;;;;;5.24;86.11;95937.03;2190635;27;20351;-62
2024/04/17 12:58:06;;;;;;;5.90;1.83;;;;;;;5.15;86.84;95932.19;2189381;26;20290;-62
2024/04/17 12:59:09;;;;;;;8.43;2.50;;;;;;;5.37;86.38;95937.44;2192281;27;20257;-62
2024/04/17 13:00:11;;;;;;;4.75;2.35;;;;;;;5.34;85.96;95935.81;2191049;26;20218;-62
2024/04/17 13:01:13;;;;;;;9.10;2.15;;;;;;;5.17;84.39;95933.81;2193954;27;20210;-63
2024/04/17 13:02:15;;;;;;;5.35;2.05;;;;;;;5.20;84.76;95938.88;2192805;26;20736;-62
2024/04/17 13:03:28;;;;;;;18.77;7.80;;;;;;;5.35;84.78;95936.66;2192507;26;20246;-62
2024/04/17 13:04:30;;;;;;;13.40;5.50;;;;;;;5.23;84.31;95931.03;2185203;27;20253;-62
2024/04/17 13:05:32;;;;;;;24.20;8.95;;;;;;;5.26;84.42;95932.66;2191838;27;20255;-62
2024/04/17 13:06:33;;;;;;;7.60;3.53;;;;;;;5.34;84.35;95928.03;2192129;27;20327;-62
2024/04/17 13:07:35;;;;;;;8.70;3.45;;;;;;;5.47;84.09;95928.47;2190380;27;20219;-62
2024/04/17 13:08:38;;;;;;;7.90;6.13;;;;;;;5.67;83.97;95930.31;2193304;26;20323;-62
2024/04/17 13:09:41;;;;;;;9.40;6.95;;;;;;;5.96;83.45;95933.56;2193680;27;20357;-64
2024/04/17 13:10:42;;;;;;;7.55;3.05;;;;;;;5.93;83.17;95930.25;2188042;27;20266;-64
2024/04/17 13:11:45;;;;;;;5.20;3.50;;;;;;;5.88;82.54;95925.25;2196320;26;20849;-64
2024/04/17 13:12:47;;;;;;;15.18;7.10;;;;;;;6.02;82.64;95925.59;2195625;26;20224;-64
2024/04/17 13:13:54;;;;;;;42.55;21.52;;;;;;;6.28;82.78;95922.91;2196627;26;20221;-65
2024/04/17 13:14:55;;;;;;;30.63;14.30;;;;;;;6.52;83.20;95923.69;2196077;27;21189;-64
2024/04/17 13:15:59;;;;;;;12.65;5.82;;;;;;;6.43;81.16;95924.91;2194180;27;20269;-64
2024/04/17 13:17:01;;;;;;;11.27;5.22;;;;;;;6.62;80.83;95914.63;2191502;27;20708;-64
2024/04/17 13:18:03;;;;;;;6.68;3.15;;;;;;;6.86;79.72;95914.53;2197699;26;20348;-64
2024/04/17 13:19:05;;;;;;;9.05;3.90;;;;;;;7.00;78.18;95912.19;2197075;26;20296;-64
2024/04/17 13:20:06;;;;;;;5.00;2.15;;;;;;;7.12;76.68;95916.03;2192457;26;20224;-66
2024/04/17 13:21:08;;;;;;;8.70;2.70;;;;;;;7.39;77.09;95917.50;2191603;27;20566;-64
2024/04/17 13:22:09;;;;;;;14.60;4.07;;;;;;;7.50;76.43;95915.28;2190574;27;20234;-64
2024/04/17 13:23:11;;;;;;;38.67;15.65;;;;;;;7.58;75.66;95920.13;2186912;26;20266;-64
2024/04/17 13:24:17;;;;;;;22.65;8.25;;;;;;;7.65;75.16;95905.97;2196519;27;20219;-64
2024/04/17 13:25:19;;;;;;;13.75;5.47;;;;;;;8.21;74.66;95906.88;2193177;27;20334;-64
2024/04/17 13:26:20;;;;;;;23.85;10.38;;;;;;;8.31;73.20;95902.91;2195486;27;20554;-64
2024/04/17 13:27:25;;;;;;;31.60;10.68;;;;;;;8.25;72.83;95907.56;2190956;27;20399;-64
2024/04/17 13:28:28;;;;;;;18.98;8.00;;;;;;;8.63;72.94;95907.53;2189366;26;20252;-65
2024/04/17 13:29:35;;;;;;;14.38;5.38;;;;;;;8.46;71.75;95897.94;2197258;26;20218;-64
2024/04/17 13:30:36;;;;;;;18.92;8.63;;;;;;;8.57;72.92;95906.06;2192577;27;20665;-65
2024/04/17 13:31:38;;;;;;;9.18;4.18;;;;;;;9.06;72.43;95908.00;2191030;27;20747;-65
2024/04/17 13:32:39;;;;;;;7.65;3.17;;;;;;;9.22;73.05;95902.00;2184760;27;20281;-63
2024/04/17 13:33:41;;;;;;;23.63;9.80;;;;;;;9.25;71.42;95907.06;2192854;27;20518;-62
2024/04/17 13:34:43;;;;;;;9.82;3.88;;;;;;;9.04;69.33;95907.25;2195418;26;20255;-63
2024/04/17 13:35:58;;;;;;;21.67;10.05;;;;;;;9.35;69.55;95900.47;2206158;26;20240;-63
2024/04/17 13:37:00;;;;;;;11.02;3.63;;;;;;;9.90;70.43;95898.47;2206549;26;20348;-63
2024/04/17 13:38:01;;;;;;;16.40;5.95;;;;;;;9.94;69.23;95903.47;2195241;26;20257;-63
2024/04/17 13:39:03;;;;;;;12.73;5.65;;;;;;;9.88;67.98;95905.53;2193879;26;20858;-63
2024/04/17 13:40:05;;;;;;;13.75;6.80;;;;;;;9.55;67.26;95893.34;2190984;26;20284;-63
2024/04/17 13:41:09;;;;;;;14.63;5.65;;;;;;;9.40;67.51;95901.06;2190127;27;20322;-63
2024/04/17 13:42:11;;;;;;;12.40;5.90;;;;;;;9.46;68.37;95905.13;2177830;27;20266;-63
2024/04/17 13:43:13;;;;;;;10.02;5.78;;;;;;;9.78;67.59;95898.22;2192079;26;20920;-63
2024/04/17 13:44:15;;;;;;;18.45;7.72;;;;;;;9.66;67.20;95898.84;2190397;27;20225;-63
2024/04/17 13:45:16;;;;;;;13.48;5.50;;;;;;;9.73;67.90;95897.63;2194191;26;20291;-63
2024/04/17 13:46:19;;;;;;;12.40;6.38;;;;;;;9.85;66.95;95895.28;2192733;27;20226;-63
2024/04/17 13:47:22;;;;;;;9.60;4.35;;;;;;;9.44;68.19;95891.34;2187650;27;20273;-63
2024/04/17 13:48:24;;;;;;;10.35;3.80;;;;;;;9.04;69.52;95890.75;2192152;26;20250;-63
2024/04/17 13:49:26;;;;;;;8.77;3.85;;;;;;;8.86;69.63;95895.97;2193959;27;20215;-63
2024/04/17 13:50:27;;;;;;;8.85;2.53;;;;;;;9.55;68.47;95891.63;2194461;27;20241;-63
2024/04/17 13:51:29;;;;;;;9.25;3.30;;;;;;;9.84;65.72;95894.44;2193050;26;20213;-64
2024/04/17 13:52:31;;;;;;;12.20;4.00;;;;;;;9.99;64.54;95889.31;2191497;27;20335;-64
2024/04/17 13:53:35;;;;;;;11.38;4.47;;;;;;;10.05;60.13;95895.03;2189958;26;20313;-64
2024/04/17 13:54:37;;;;;;;6.40;3.63;;;;;;;10.21;58.51;95889.81;2190833;27;20259;-64
2024/04/17 13:55:38;;;;;;;8.63;3.53;;;;;;;9.88;59.21;95888.13;2190079;27;20261;-64
2024/04/17 13:56:40;;;;;;;12.93;3.15;;;;;;;9.91;61.43;95887.97;2197346;27;20217;-64
2024/04/17 13:57:42;;;;;;;13.85;3.33;;;;;;;10.16;62.68;95891.84;2196071;26;20274;-64
2024/04/17 13:58:43;;;;;;;7.80;2.70;;;;;;;-145.49;100.00;55703.94;2193807;27;21016;-64
2024/04/17 13:59:47;;;;;;;5.85;2.80;;;;;;;-145.49;100.00;55703.94;2194402;26;20249;-64
2024/04/17 14:00:49;;;;;;;9.18;2.75;;;;;;;-145.49;100.00;55703.94;2202494;26;20285;-64
2024/04/17 14:01:50;;;;;;;4.28;1.95;;;;;;;9.92;58.83;95889.66;2199069;26;20666;-64
2024/04/17 14:02:56;;;;;;;7.93;2.85;;;;;;;9.62;62.90;95889.53;2188892;26;20269;-65
2024/04/17 14:03:58;;;;;;;6.45;2.50;;;;;;;9.34;64.16;95893.56;2185662;27;20315;-64
2024/04/17 14:05:00;;;;;;;5.90;2.33;;;;;;;9.33;63.19;95884.06;2192429;26;20860;-65
2024/04/17 14:06:01;;;;;;;8.10;2.97;;;;;;;9.93;63.77;95885.28;2190238;26;20214;-62
2024/04/17 14:07:04;;;;;;;6.38;2.47;;;;;;;10.26;62.13;95885.19;2187343;26;20218;-64
2024/04/17 14:08:07;;;;;;;5.45;2.78;;;;;;;10.15;61.60;95887.56;2183269;26;20545;-63
2024/04/17 14:09:09;;;;;;;7.95;2.60;;;;;;;10.15;62.11;95884.94;2184780;27;20930;-64
2024/04/17 14:10:11;;;;;;;7.35;2.80;;;;;;;9.90;61.18;95883.69;2184411;27;20230;-64
2024/04/17 14:11:13;;;;;;;6.95;2.58;;;;;;;10.20;60.94;95882.91;2187918;27;20672;-65
2024/04/17 14:12:14;;;;;;;4.10;2.03;;;;;;;10.71;61.45;95881.88;2188060;27;20274;-64
2024/04/17 14:13:16;;;;;;;6.13;2.33;;;;;;;11.19;60.29;95874.72;2185960;26;20254;-63
2024/04/17 14:14:17;;;;;;;5.68;2.13;;;;;;;11.41;58.56;95882.13;2183978;26;20209;-63
2024/04/17 14:15:19;;;;;;;5.22;2.22;;;;;;;11.71;59.39;95875.94;2181834;27;20223;-63
2024/04/17 14:16:21;;;;;;;16.73;2.22;;;;;;;-145.49;100.00;55703.94;2182494;27;20261;-63
2024/04/17 14:17:22;;;;;;;7.20;2.85;;;;;;;11.71;59.39;95875.94;2185511;27;20538;-63
2024/04/17 14:18:26;;;;;;;10.80;3.35;;;;;;;10.39;57.07;95879.34;2184188;26;20334;-63
2024/04/17 14:19:27;;;;;;;8.07;2.55;;;;;;;10.19;59.26;95889.06;2188600;26;20561;-63
2024/04/17 14:20:34;;;;;;;4.65;2.00;;;;;;;9.82;60.22;95880.63;2188026;26;20951;-63
2024/04/17 14:21:36;;;;;;;3.70;2.42;;;;;;;9.38;59.70;95881.22;2188958;27;20354;-63
2024/04/17 14:22:38;;;;;;;5.65;2.53;;;;;;;9.34;61.44;95884.91;2187560;26;20226;-63
2024/04/17 14:23:39;;;;;;;9.05;2.65;;;;;;;9.17;60.82;95886.63;2173083;27;20238;-64
2024/04/17 14:24:41;;;;;;;8.35;2.22;;;;;;;8.77;62.00;95847.84;2172888;27;20348;-64
2024/04/17 14:25:42;;;;;;;8.88;2.28;;;;;;;8.96;63.75;95873.78;2172306;27;20870;-63
2024/04/17 14:26:45;;;;;;;6.55;2.38;;;;;;;8.95;63.71;95877.31;2176713;27;20254;-63
2024/04/17 14:27:47;;;;;;;3.55;2.00;;;;;;;9.15;64.90;95875.44;2174660;27;20226;-64
2024/04/17 14:28:48;;;;;;;4.47;2.13;;;;;;;9.25;65.35;95875.81;2177386;27;20253;-64
2024/04/17 14:29:50;;;;;;;11.38;2.72;;;;;;;9.09;64.61;95878.34;2174609;27;20786;-64
2024/04/17 14:30:59;;;;;;;7.03;2.42;;;;;;;8.70;64.59;95874.22;2173317;27;20691;-64
2024/04/17 14:32:00;;;;;;;4.75;2.20;;;;;;;8.39;65.72;95873.09;2174224;27;20291;-63
2024/04/17 14:33:02;;;;;;;5.40;2.53;;;;;;;8.40;66.87;95869.59;2178443;27;20385;-64
2024/04/17 14:34:04;;;;;;;5.85;2.60;;;;;;;8.34;67.02;95871.56;2190421;27;20276;-64
2024/04/17 14:35:06;;;;;;;6.60;2.33;;;;;;;8.05;67.02;95870.34;2200112;26;20349;-63
2024/04/17 14:36:08;;;;;;;6.00;2.70;;;;;;;7.96;67.22;95874.22;2200180;26;20260;-64
2024/04/17 14:37:10;;;;;;;11.40;2.75;;;;;;;7.85;68.87;95881.66;2186456;27;20221;-64
2024/04/17 14:38:11;;;;;;;6.15;2.53;;;;;;;7.84;69.76;95875.63;2184776;26;20261;-63
2024/04/17 14:39:13;;;;;;;8.63;2.95;;;;;;;7.99;69.53;95874.06;2178787;27;20219;-65
2024/04/17 14:40:15;;;;;;;6.20;2.25;;;;;;;7.88;69.50;95871.13;2184338;27;20267;-64
2024/04/17 14:41:17;;;;;;;9.07;2.55;;;;;;;7.80;69.53;95873.25;2179004;27;20669;-64
2024/04/17 14:42:18;;;;;;;7.53;2.40;;;;;;;7.73;69.22;95871.84;2183419;27;20566;-64
2024/04/17 14:43:20;;;;;;;5.75;2.60;;;;;;;7.94;69.63;95867.41;2185570;26;20674;-64
2024/04/17 14:44:22;;;;;;;10.43;2.65;;;;;;;8.15;69.37;95866.41;2187034;27;20226;-66
2024/04/17 14:45:23;;;;;;;7.75;2.50;;;;;;;8.36;68.71;95868.06;2186088;27;20326;-65
2024/04/17 14:46:25;;;;;;;8.65;2.70;;;;;;;8.75;68.34;95869.66;2186530;27;20659;-65
2024/04/17 14:47:26;;;;;;;9.07;2.60;;;;;;;8.96;66.69;95865.97;2185724;27;20595;-66
2024/04/17 14:48:31;;;;;;;5.85;2.33;;;;;;;9.06;66.80;95883.72;2183242;26;21162;-66
2024/04/17 14:49:33;;;;;;;8.35;2.67;;;;;;;9.35;66.48;95870.97;2183840;27;20218;-65
2024/04/17 14:50:41;;;;;;;4.88;2.63;;;;;;;9.67;65.54;95874.47;2186794;27;20774;-66
2024/04/17 14:51:42;;;;;;;7.38;2.50;;;;;;;9.73;64.92;95873.31;2183196;27;20272;-66
2024/04/17 14:52:44;;;;;;;3.85;1.85;;;;;;;9.89;64.16;95865.50;2185916;26;20370;-66
2024/04/17 14:53:46;;;;;;;4.97;2.15;;;;;;;9.94;63.53;95858.25;2188124;27;20337;-65
2024/04/17 14:54:48;;;;;;;6.28;1.85;;;;;;;9.94;61.77;95855.66;2188434;26;20853;-66
2024/04/17 14:56:00;;;;;;;11.23;2.60;;;;;;;9.73;61.83;95861.13;2186299;27;20215;-65
2024/04/17 14:57:03;;;;;;;6.68;1.60;;;;;;;9.89;62.21;95868.09;2188005;27;20271;-64
2024/04/17 14:58:05;;;;;;;6.00;2.45;;;;;;;10.19;62.37;95865.56;2186528;26;20254;-65
2024/04/17 14:59:07;;;;;;;4.88;2.40;;;;;;;10.06;61.29;95869.81;2186643;26;20265;-66
2024/04/17 15:00:09;;;;;;;4.65;1.73;;;;;;;9.47;63.05;95863.34;2189442;26;20769;-66
2024/04/17 15:01:14;;;;;;;7.13;2.53;;;;;;;9.33;62.82;95865.81;2188149;26;20222;-66
2024/04/17 15:02:16;;;;;;;6.15;2.50;;;;;;;9.66;63.42;95864.13;2182686;27;20214;-66
2024/04/17 15:03:18;;;;;;;7.35;2.30;;;;;;;10.22;62.54;95861.97;2187531;26;20314;-66
2024/04/17 15:04:19;;;;;;;6.28;2.20;;;;;;;10.47;60.80;95864.06;2192120;26;20300;-66
2024/04/17 15:05:21;;;;;;;7.63;1.50;;;;;;;10.39;60.02;95863.66;2188461;27;20219;-66
2024/04/17 15:06:22;;;;;;;4.15;1.52;;;;;;;10.36;59.90;95863.81;2185961;26;20333;-66
2024/04/17 15:07:24;;;;;;;12.40;6.97;;;;;;;10.37;60.28;95857.69;2190417;26;20323;-66
2024/04/17 15:08:27;;;;;;;16.67;7.30;;;;;;;9.69;60.19;95857.00;2188518;26;20334;-66
2024/04/17 15:09:30;;;;;;;14.90;7.82;;;;;;;9.68;61.25;95863.13;2187062;27;20222;-66
2024/04/17 15:10:32;;;;;;;6.13;2.05;;;;;;;9.71;60.88;95856.91;2184911;27;20223;-66
2024/04/17 15:11:37;;;;;;;4.00;1.73;;;;;;;9.75;61.04;95854.06;2189307;27;20225;-66
2024/04/17 15:12:39;;;;;;;5.15;1.75;;;;;;;9.58;61.62;95856.72;2187851;27;20867;-66
2024/04/17 15:13:41;;;;;;;4.93;1.60;;;;;;;9.75;60.56;95854.06;2188123;27;20266;-66
2024/04/17 15:14:44;;;;;;;8.70;2.70;;;;;;;10.31;61.01;95861.47;2185686;27;20223;-66
2024/04/17 15:15:54;;;;;;;6.97;1.95;;;;;;;10.74;59.35;95856.44;2189430;26;20269;-66
2024/04/17 15:16:55;;;;;;;4.00;1.60;;;;;;;10.78;57.43;95851.88;2188998;27;20677;-67
2024/04/17 15:17:57;;;;;;;8.32;1.98;;;;;;;10.70;57.62;95849.69;2190524;26;20731;-65
2024/04/17 15:18:58;;;;;;;3.92;1.48;;;;;;;10.70;57.81;95844.47;2184625;27;20246;-65
2024/04/17 15:20:00;;;;;;;6.78;1.80;;;;;;;10.75;58.46;95852.03;2186109;27;20578;-65
2024/04/17 15:21:04;;;;;;;4.70;1.52;;;;;;;10.90;58.09;95860.75;2190451;26;20218;-65
2024/04/17 15:22:06;;;;;;;3.60;1.42;;;;;;;10.67;58.27;95849.03;2186993;27;20301;-66
2024/04/17 15:23:07;;;;;;;4.03;1.67;;;;;;;10.61;57.33;95851.09;2185410;26;20253;-67
2024/04/17 15:24:14;;;;;;;3.33;1.60;;;;;;;10.61;57.64;95855.44;2188472;27;20511;-66
2024/04/17 15:25:15;;;;;;;3.63;1.77;;;;;;;10.66;57.87;95853.41;2189061;27;20311;-66
2024/04/17 15:26:18;;;;;;;5.20;1.45;;;;;;;10.62;58.59;95844.09;2187469;27;20267;-66
2024/04/17 15:27:19;;;;;;;2.33;1.27;;;;;;;10.67;59.14;95855.09;2187890;27;20223;-66
2024/04/17 15:28:21;;;;;;;3.15;1.40;;;;;;;10.64;59.03;95850.06;2185983;26;20317;-66
2024/04/17 15:29:23;;;;;;;2.58;1.35;;;;;;;10.44;60.29;95856.41;2183430;27;20530;-66
2024/04/17 15:30:25;;;;;;;6.45;1.85;;;;;;;10.29;60.97;95856.31;2184533;26;20539;-66
2024/04/17 15:31:27;;;;;;;5.70;2.22;;;;;;;10.49;60.33;95851.78;2184663;27;20282;-67
2024/04/17 15:32:34;;;;;;;2.65;1.40;;;;;;;10.57;60.12;95856.56;2180412;27;20269;-68
2024/04/17 15:33:36;;;;;;;18.55;10.63;;;;;;;10.54;60.46;95856.72;2179685;27;20251;-68
2024/04/17 15:34:38;;;;;;;8.15;1.77;;;;;;;10.80;60.21;95849.16;2187322;27;20230;-67
2024/04/17 15:35:46;;;;;;;17.02;9.85;;;;;;;11.23;60.49;95842.22;2188808;26;20214;-66
2024/04/17 15:36:48;;;;;;;10.63;6.93;;;;;;;10.91;57.75;95852.00;2189045;26;20214;-66
2024/04/17 15:37:50;;;;;;;6.20;1.83;;;;;;;11.06;57.38;95850.25;2183661;26;20219;-67
2024/04/17 15:38:52;;;;;;;4.18;1.23;;;;;;;11.22;57.73;95848.41;2183782;27;20223;-67
2024/04/17 15:39:53;;;;;;;2.88;1.20;;;;;;;10.87;57.74;95848.72;2187235;27;20225;-67